Thunderstorms From: 25-05-2018 15:00 Until: 26-05-2018 15:00 warning for: Thunderstorms Level: Yellow info button

Although rather usual in this region, locally or potentially dangerous phenomena are expected. (such as local winds, summer thunderstorms, rising streams or high waves) Be aware and pay attention to the latest weather updates, especially if you carry out activities exposed to weather or close to a stream or shoreline. 


Meteo18 Weather Cam more information Meteo18 Weather Cam


warning for Thunderstorms more information blitzortung!


Rain radar more information rain snow radar


Visit our other weather sites:

Template documentation
and downloads

And another site



Weather Underground History page Text

Daily Summary for July 20, 2016 Units:  Metric    English   Both
« Previous Day
Next Day »
Daily Weekly Monthly Yearly Custom
  High: Low: Average:
Temperature: -17.8 °C -8.8 °C -4.4 °C
Dew Point: -17.8 °C -9.6 °C -8.3 °C
Humidity: Humidity % 43 % 67 %
Wind Speed: 0 km/h 0 km/h 0.5 km/h
Wind Gust: 0 km/h - -
Wind:- - South
Pressure: 0 hPa 34293.4 hPa -
Precipitation: 0 mm    
Historical Graphs
 
 
Tabular Data for July 20, 2016
Time Temperature Dew Point Pressure Wind Wind Speed Wind Gust Humidity Rainfall Rate (Hourly)
-17.8 °C -17.8 °C 0 hPa Calm     Humidity % 0 mm
00:02 -6 °C -8.4 °C 34347.6 hPa Calm     76 % 0 mm
00:07 -6 °C -8.6 °C 34347.6 hPa Calm     75 % 0 mm
00:12 -6 °C -8.6 °C 34337.4 hPa Calm     75 % 0 mm
00:17 -5.9 °C -8.5 °C 34337.4 hPa Calm     75 % 0 mm
00:22 -5.9 °C -8.5 °C 34337.4 hPa Calm     75 % 0 mm
00:32 -5.9 °C -8.5 °C 34337.4 hPa Calm     75 % 0 mm
00:42 -6.2 °C -8.6 °C 34337.4 hPa Calm     76 % 0 mm
00:47 -6.2 °C -8.7 °C 34337.4 hPa Calm     76 % 0 mm
00:52 -6.3 °C -8.6 °C 34337.4 hPa Calm     77 % 0 mm
00:57 -6.3 °C -8.6 °C 34327.3 hPa Calm     78 % 0 mm
01:02 -6.3 °C -8.6 °C 34327.3 hPa Calm     78 % 0 mm
01:07 -6.3 °C -8.7 °C 34327.3 hPa Calm     77 % 0 mm
01:12 -6.3 °C -8.6 °C 34327.3 hPa Calm     78 % 0 mm
01:17 -6.4 °C -8.6 °C 34327.3 hPa Calm     78 % 0 mm
01:22 -6.4 °C -8.7 °C 34327.3 hPa Calm     78 % 0 mm
01:27 -6.4 °C -8.7 °C 34327.3 hPa Calm     78 % 0 mm
01:32 -6.5 °C -8.7 °C 34327.3 hPa Calm     78 % 0 mm
01:37 -6.6 °C -8.7 °C 34327.3 hPa Calm     79 % 0 mm
01:42 -6.5 °C -8.6 °C 34327.3 hPa Calm     79 % 0 mm
01:47 -6.6 °C -8.7 °C 34327.3 hPa Calm     79 % 0 mm
01:52 -6.6 °C -8.7 °C 34327.3 hPa Calm     79 % 0 mm
01:57 -6.6 °C -8.7 °C 34327.3 hPa Calm     79 % 0 mm
02:02 -6.6 °C -8.7 °C 34327.3 hPa Calm     79 % 0 mm
02:07 -6.6 °C -8.7 °C 34327.3 hPa Calm     79 % 0 mm
02:12 -6.7 °C -8.7 °C 34327.3 hPa Calm     80 % 0 mm
02:17 -6.8 °C -8.8 °C 34327.3 hPa Calm     80 % 0 mm
02:22 -6.8 °C -8.8 °C 34327.3 hPa Calm     80 % 0 mm
02:27 -6.8 °C -8.8 °C 34327.3 hPa Calm     80 % 0 mm
02:32 -6.9 °C -8.8 °C 34327.3 hPa Calm     80 % 0 mm
02:37 -6.9 °C -8.8 °C 34327.3 hPa Calm     81 % 0 mm
02:42 -7 °C -8.8 °C 34327.3 hPa Calm     81 % 0 mm
02:47 -7.1 °C -8.9 °C 34327.3 hPa Calm     81 % 0 mm
02:52 -7.1 °C -8.8 °C 34327.3 hPa Calm     82 % 0 mm
02:57 -7.1 °C -8.8 °C 34327.3 hPa Calm     82 % 0 mm
03:02 -7.1 °C -8.8 °C 34327.3 hPa Calm     82 % 0 mm
03:07 -7.1 °C -8.8 °C 34327.3 hPa Calm     82 % 0 mm
03:12 -7.2 °C -8.9 °C 34327.3 hPa Calm     82 % 0 mm
03:17 -7.3 °C -9 °C 34327.3 hPa Calm     82 % 0 mm
03:22 -7.3 °C -8.9 °C 34327.3 hPa Calm     83 % 0 mm
03:27 -7.4 °C -8.9 °C 34327.3 hPa Calm     84 % 0 mm
03:32 -7.4 °C -9 °C 34327.3 hPa Calm     84 % 0 mm
03:37 -7.5 °C -8.9 °C 34313.7 hPa Calm     85 % 0 mm
03:42 -7.6 °C -9 °C 34313.7 hPa Calm     85 % 0 mm
03:47 -7.6 °C -8.9 °C 34313.7 hPa Calm     86 % 0 mm
03:52 -7.6 °C -8.9 °C 34313.7 hPa Calm     86 % 0 mm
03:57 -7.6 °C -8.9 °C 34313.7 hPa Calm     86 % 0 mm
04:02 -7.6 °C -8.9 °C 34313.7 hPa Calm     86 % 0 mm
04:07 -7.6 °C -8.9 °C 34313.7 hPa Calm     86 % 0 mm
04:12 -7.7 °C -9 °C 34313.7 hPa Calm     86 % 0 mm
04:17 -7.7 °C -8.9 °C 34313.7 hPa Calm     87 % 0 mm
04:27 -7.8 °C -9.1 °C 34313.7 hPa Calm     87 % 0 mm
04:32 -7.9 °C -9.1 °C 34303.6 hPa Calm     87 % 0 mm
04:37 -7.9 °C -9.1 °C 34303.6 hPa Calm     88 % 0 mm
04:42 -8 °C -9.1 °C 34313.7 hPa Calm     88 % 0 mm
04:47 -8 °C -9.1 °C 34313.7 hPa Calm     88 % 0 mm
04:52 -8.1 °C -9.1 °C 34303.6 hPa Calm     89 % 0 mm
05:02 -8.2 °C -9.2 °C 34303.6 hPa Calm     89 % 0 mm
05:12 -8.2 °C -9.2 °C 34313.7 hPa Calm     90 % 0 mm
05:17 -8.2 °C -9.2 °C 34313.7 hPa Calm     90 % 0 mm
05:22 -8.3 °C -9.2 °C 34313.7 hPa Calm     90 % 0 mm
05:32 -8.3 °C -9.2 °C 34313.7 hPa Calm     90 % 0 mm
05:37 -8.3 °C -9.2 °C 34313.7 hPa Calm     90 % 0 mm
05:42 -8.3 °C -9.3 °C 34313.7 hPa Calm     90 % 0 mm
05:52 -8.3 °C -9.3 °C 34313.7 hPa Calm     90 % 0 mm
06:02 -8.4 °C -9.3 °C 34313.7 hPa Calm     90 % 0 mm
06:12 -8.4 °C -9.2 °C 34313.7 hPa Calm     91 % 0 mm
06:17 -8.4 °C -9.3 °C 34327.3 hPa Calm     91 % 0 mm
06:22 -8.6 °C -9.4 °C 34313.7 hPa Calm     91 % 0 mm
06:27 -8.7 °C -9.5 °C 34313.7 hPa Calm     91 % 0 mm
06:32 -8.7 °C -9.6 °C 34313.7 hPa Calm     91 % 0 mm
06:42 -8.7 °C -9.4 °C 34313.7 hPa Calm     92 % 0 mm
06:52 -8.8 °C -9.5 °C 34327.3 hPa Calm     92 % 0 mm
07:02 -8.8 °C -9.4 °C 34313.7 hPa Calm     93 % 0 mm
07:12 -8.7 °C -9.3 °C 34313.7 hPa Calm     93 % 0 mm
07:17 -8.7 °C -9.2 °C 34313.7 hPa Calm     94 % 0 mm
07:22 -8.6 °C -9.2 °C 34313.7 hPa Calm     94 % 0 mm
07:32 -8.4 °C -8.9 °C 34313.7 hPa Calm     94 % 0 mm
07:42 -8.3 °C -8.8 °C 34313.7 hPa Calm     94 % 0 mm
07:52 -8.1 °C -8.7 °C 34313.7 hPa Calm     94 % 0 mm
08:02 -7.9 °C -8.6 °C 34313.7 hPa Calm     93 % 0 mm
08:12 -7.8 °C -8.5 °C 34313.7 hPa Calm     92 % 0 mm
08:17 -7.6 °C -8.4 °C 34327.3 hPa Calm     91 % 0 mm
08:22 -7.4 °C -8.3 °C 34327.3 hPa Calm     90 % 0 mm
08:32 -7 °C -8.2 °C 34313.7 hPa Calm     87 % 0 mm
08:37 -6.8 °C -8.1 °C 34313.7 hPa Calm     86 % 0 mm
08:42 -6.4 °C -8.3 °C 34313.7 hPa Calm     81 % 0 mm
08:52 -5.8 °C -8.1 °C 34327.3 hPa Calm     77 % 0 mm
08:57 -5.6 °C -8.3 °C 34313.7 hPa Calm     74 % 0 mm
09:02 -5.3 °C -8.2 °C 34327.3 hPa Calm   2.6 km/h 73 % 0 mm
09:12 -4.8 °C -8.4 °C 34313.7 hPa Calm   2.6 km/h 67 % 0 mm
09:17 -4.5 °C -8.4 °C 34313.7 hPa West 2.6 km/h 5.1 km/h 65 % 0 mm
09:22 -4.2 °C -8.1 °C 34313.7 hPa Calm   5.1 km/h 65 % 0 mm
09:32 -3.8 °C -7.9 °C 34313.7 hPa Calm   5.1 km/h 63 % 0 mm
09:42 -3.3 °C -8.1 °C 34303.6 hPa Calm   5.1 km/h 59 % 0 mm
09:47 -3.1 °C -8.6 °C 34303.6 hPa Calm   7.7 km/h 55 % 0 mm
09:52 -2.8 °C -8.1 °C 34293.4 hPa Calm   7.7 km/h 56 % 0 mm
10:02 -2.4 °C -8.1 °C 34293.4 hPa Calm   5.1 km/h 54 % 0 mm
10:12 -1.7 °C -8.4 °C 34293.4 hPa West 2.6 km/h 5.1 km/h 48 % 0 mm
10:17 -1.6 °C -8 °C 34293.4 hPa Calm   7.7 km/h 50 % 0 mm
10:22 -1.4 °C -8.7 °C 34303.6 hPa West 10.3 km/h 10.3 km/h 45 % 0 mm
10:27 -1.2 °C -7.8 °C 34303.6 hPa SE 2.6 km/h 10.3 km/h 49 % 0 mm
10:32 -0.9 °C -8.7 °C 34313.7 hPa Calm   10.3 km/h 43 % 0 mm
10:42 -0.9 °C -8.7 °C 34313.7 hPa West 5.1 km/h 10.3 km/h 43 % 0 mm
10:52 -0.6 °C -8.4 °C 34313.7 hPa WSW 5.1 km/h 10.3 km/h 43 % 0 mm
10:57 -0.8 °C -8.6 °C 34327.3 hPa WSW 2.6 km/h 18.2 km/h 43 % 0 mm
11:02 -0.7 °C -8.5 °C 34327.3 hPa Calm   18.2 km/h 43 % 0 mm
11:07 -0.9 °C -8.3 °C 34327.3 hPa Calm   18.2 km/h 45 % 0 mm
11:12 -1.1 °C -8.4 °C 34327.3 hPa WSW 2.6 km/h 10.3 km/h 45 % 0 mm
11:17 -1.3 °C -8.8 °C 34327.3 hPa WSW 2.6 km/h 10.3 km/h 44 % 0 mm
11:22 -1.6 °C -8.9 °C 34327.3 hPa SW 2.6 km/h 10.3 km/h 45 % 0 mm
11:27 -1.8 °C -8.5 °C 34337.4 hPa SSE 2.6 km/h 10.3 km/h 48 % 0 mm
11:32 -1.9 °C -8.4 °C 34337.4 hPa WSW 2.6 km/h 10.3 km/h 49 % 0 mm
11:37 -2 °C -8.3 °C 34347.6 hPa SE 2.6 km/h 7.7 km/h 50 % 0 mm
11:42 -2.1 °C -8.6 °C 34347.6 hPa WSW 2.6 km/h 7.7 km/h 49 % 0 mm
11:47 -2.2 °C -8.6 °C 34347.6 hPa Calm   7.7 km/h 50 % 0 mm
11:52 -2.2 °C -8.3 °C 34347.6 hPa Calm   7.7 km/h 51 % 0 mm
11:57 -2.1 °C -7.9 °C 34347.6 hPa Calm   7.7 km/h 53 % 0 mm
12:02 -1.8 °C -7.8 °C 34347.6 hPa West 2.6 km/h 7.7 km/h 52 % 0 mm
12:07 -1.3 °C -7.7 °C 34347.6 hPa East 2.6 km/h 7.7 km/h 50 % 0 mm
12:12 -1.2 °C -7.8 °C 34347.6 hPa East 2.6 km/h 18.2 km/h 49 % 0 mm
12:17 -1.2 °C -7.8 °C 34347.6 hPa Calm   18.2 km/h 49 % 0 mm
12:22 -0.9 °C -7.6 °C 34347.6 hPa Calm   18.2 km/h 49 % 0 mm
12:32 -1.2 °C -7.8 °C 34347.6 hPa Calm   15.6 km/h 49 % 0 mm
12:42 -1.9 °C -7.9 °C 34347.6 hPa SE 2.6 km/h 15.6 km/h 52 % 0 mm
12:47 -2 °C -7.7 °C 34347.6 hPa Calm   12.9 km/h 54 % 0 mm
12:52 -1.9 °C -7.6 °C 34347.6 hPa Calm   7.7 km/h 54 % 0 mm
13:02 -1.4 °C -8 °C 34347.6 hPa East 2.6 km/h 12.9 km/h 49 % 0 mm
13:12 -1.7 °C -7.4 °C 34347.6 hPa NE 7.7 km/h 12.9 km/h 54 % 0 mm
13:17 -1.8 °C -8 °C 34347.6 hPa ENE 7.7 km/h 12.9 km/h 51 % 0 mm
13:22 -2 °C -8.5 °C 34361.1 hPa ENE 2.6 km/h 7.7 km/h 49 % 0 mm
13:27 -2.1 °C -8.3 °C 34361.1 hPa Calm   7.7 km/h 51 % 0 mm
13:32 -2.3 °C -8.6 °C 34347.6 hPa NE 2.6 km/h 7.7 km/h 50 % 0 mm
13:37 -2.3 °C -8.4 °C 34361.1 hPa Calm   7.7 km/h 51 % 0 mm
13:42 -2.3 °C -8.3 °C 34361.1 hPa Calm   7.7 km/h 52 % 0 mm
13:47 -2.3 °C -8.2 °C 34347.6 hPa Calm   7.7 km/h 53 % 0 mm
13:52 -2.4 °C -8.4 °C 34347.6 hPa Calm   10.3 km/h 52 % 0 mm
13:57 -2.6 °C -8.3 °C 34347.6 hPa Calm   10.3 km/h 53 % 0 mm
14:02 -2.6 °C -8.4 °C 34347.6 hPa Calm   10.3 km/h 53 % 0 mm
14:07 -2.8 °C -8.2 °C 34347.6 hPa Calm   2.6 km/h 55 % 0 mm
14:12 -2.9 °C -7.8 °C 34347.6 hPa Calm   2.6 km/h 59 % 0 mm
14:17 -3.2 °C -8 °C 34347.6 hPa Calm     59 % 0 mm
14:27 -3.3 °C -8.2 °C 34327.3 hPa Calm   20.8 km/h 58 % 0 mm
14:32 -3.2 °C -8.1 °C 34327.3 hPa ENE 2.6 km/h 20.8 km/h 58 % 0 mm
14:42 -2.7 °C -7.9 °C 34327.3 hPa Calm   10.3 km/h 56 % 0 mm
14:47 -2.2 °C -7.3 °C 34313.7 hPa Calm   10.3 km/h 57 % 0 mm
14:52 -1.8 °C -8 °C 34313.7 hPa Calm   10.3 km/h 51 % 0 mm
14:57 -1.6 °C -7.6 °C 34313.7 hPa NE 12.9 km/h 12.9 km/h 52 % 0 mm
15:02 -1.7 °C -8.4 °C 34313.7 hPa NNE 5.1 km/h 15.6 km/h 48 % 0 mm
15:07 -1.8 °C -8.5 °C 34313.7 hPa Calm   15.6 km/h 48 % 0 mm
15:12 -1.8 °C -8.2 °C 34313.7 hPa Calm   15.6 km/h 50 % 0 mm
15:17 -1.7 °C -8.6 °C 34313.7 hPa East 2.6 km/h 7.7 km/h 47 % 0 mm
15:22 -1.6 °C -8.3 °C 34313.7 hPa Calm   10.3 km/h 48 % 0 mm
15:32 -1.5 °C -8.2 °C 34313.7 hPa ESE 2.6 km/h 10.3 km/h 48 % 0 mm
15:37 -1.5 °C -8.6 °C 34313.7 hPa Calm   5.1 km/h 46 % 0 mm
15:47 -1.5 °C -8.2 °C 34313.7 hPa Calm   7.7 km/h 48 % 0 mm
15:57 -1.6 °C -8.9 °C 34327.3 hPa Calm   10.3 km/h 45 % 0 mm
16:02 -1.7 °C -8.1 °C 34313.7 hPa Calm   10.3 km/h 50 % 0 mm
16:07 -1.7 °C -8.4 °C 34313.7 hPa Calm   10.3 km/h 48 % 0 mm
16:12 -1.7 °C -8.4 °C 34303.6 hPa NE 2.6 km/h 7.7 km/h 48 % 0 mm
16:17 -1.8 °C -8.3 °C 34303.6 hPa Calm   7.7 km/h 49 % 0 mm
16:22 -1.8 °C -8.7 °C 34293.4 hPa Calm   7.7 km/h 47 % 0 mm
16:27 -1.9 °C -8.2 °C 34293.4 hPa Calm   7.7 km/h 50 % 0 mm
16:32 -2 °C -8.5 °C 34293.4 hPa Calm   7.7 km/h 49 % 0 mm
16:37 -2.1 °C -8.3 °C 34293.4 hPa Calm   2.6 km/h 51 % 0 mm
16:42 -2.1 °C -8.4 °C 34293.4 hPa Calm   2.6 km/h 50 % 0 mm
16:47 -1.9 °C -7.9 °C 34293.4 hPa Calm   2.6 km/h 52 % 0 mm
16:52 -1.7 °C -8.4 °C 34293.4 hPa Calm   2.6 km/h 48 % 0 mm
16:57 -1.4 °C -8.4 °C 34293.4 hPa West 2.6 km/h 2.6 km/h 47 % 0 mm
17:02 -1.4 °C -8.6 °C 34303.6 hPa Calm   5.1 km/h 46 % 0 mm
17:12 -1.6 °C -8.5 °C 34313.7 hPa Calm   5.1 km/h 47 % 0 mm
17:17 -1.6 °C -8.3 °C 34313.7 hPa WNW 2.6 km/h 5.1 km/h 48 % 0 mm
17:22 -1.6 °C -8.7 °C 34313.7 hPa Calm   5.1 km/h 46 % 0 mm
17:27 -1.5 °C -8.4 °C 34327.3 hPa Calm   7.7 km/h 47 % 0 mm
17:32 -1.4 °C -8.8 °C 34327.3 hPa Calm   7.7 km/h 45 % 0 mm
17:37 -1.4 °C -8.4 °C 34327.3 hPa Calm   7.7 km/h 47 % 0 mm
17:47 -1.4 °C -7.9 °C 34327.3 hPa Calm   5.1 km/h 49 % 0 mm
17:52 -1.3 °C -8.6 °C 34327.3 hPa Calm   5.1 km/h 45 % 0 mm
17:57 -1.3 °C -8.8 °C 34337.4 hPa Calm     44 % 0 mm
18:07 -1.3 °C -8.4 °C 34327.3 hPa WSW 2.6 km/h 5.1 km/h 46 % 0 mm
18:12 -1.2 °C -8.6 °C 34327.3 hPa Calm   5.1 km/h 45 % 0 mm
18:17 -1.2 °C -8.8 °C 34327.3 hPa Calm   5.1 km/h 44 % 0 mm
18:22 -1.2 °C -8.4 °C 34313.7 hPa Calm   5.1 km/h 46 % 0 mm
18:32 -1.3 °C -8.6 °C 34327.3 hPa Calm   7.7 km/h 45 % 0 mm
18:42 -1.3 °C -7.9 °C 34327.3 hPa Calm   5.1 km/h 49 % 0 mm
18:47 -1.3 °C -8.7 °C 34313.7 hPa WSW 2.6 km/h 5.1 km/h 45 % 0 mm
18:52 -1.3 °C -8.6 °C 34313.7 hPa Calm   2.6 km/h 45 % 0 mm
18:57 -1.3 °C -8.7 °C 34327.3 hPa Calm   2.6 km/h 45 % 0 mm
19:02 -1.4 °C -8.2 °C 34313.7 hPa SW 2.6 km/h 2.6 km/h 48 % 0 mm
19:12 -1.5 °C -8.8 °C 34327.3 hPa WSW 2.6 km/h 10.3 km/h 45 % 0 mm
19:17 -1.6 °C -8.3 °C 34313.7 hPa Calm   10.3 km/h 48 % 0 mm
19:22 -1.7 °C -8.1 °C 34313.7 hPa Calm   2.6 km/h 50 % 0 mm
19:27 -1.9 °C -7.7 °C 34313.7 hPa Calm   2.6 km/h 53 % 0 mm
19:32 -2.1 °C -7.8 °C 34313.7 hPa Calm     54 % 0 mm
19:37 -2.3 °C -7.5 °C 34313.7 hPa Calm     57 % 0 mm
19:42 -2.5 °C -7.7 °C 34313.7 hPa Calm     57 % 0 mm
19:47 -2.7 °C -8.1 °C 34313.7 hPa Calm     55 % 0 mm
19:52 -2.7 °C -7.6 °C 34313.7 hPa Calm     59 % 0 mm
19:57 -2.8 °C -7.6 °C 34313.7 hPa Calm     59 % 0 mm
20:02 -2.9 °C -7.3 °C 34313.7 hPa Calm     62 % 0 mm
20:12 -3.2 °C -7.3 °C 34313.7 hPa Calm     64 % 0 mm
20:17 -3.3 °C -7.3 °C 34313.7 hPa Calm     64 % 0 mm
20:22 -3.4 °C -7.3 °C 34313.7 hPa Calm     65 % 0 mm
20:27 -3.4 °C -7.5 °C 34313.7 hPa Calm     64 % 0 mm
20:32 -3.5 °C -7.3 °C 34313.7 hPa Calm     66 % 0 mm
20:37 -3.6 °C -7.1 °C 34313.7 hPa Calm     68 % 0 mm
20:42 -3.8 °C -7.4 °C 34303.6 hPa Calm     67 % 0 mm
20:47 -3.9 °C -7.4 °C 34313.7 hPa Calm     68 % 0 mm
20:52 -4 °C -7.4 °C 34313.7 hPa Calm     69 % 0 mm
20:57 -4.1 °C -7.7 °C 34313.7 hPa Calm     67 % 0 mm
21:02 -4.1 °C -7.7 °C 34313.7 hPa Calm     67 % 0 mm
21:07 -4 °C -7.5 °C 34313.7 hPa Calm     68 % 0 mm
21:12 -4.1 °C -7.6 °C 34313.7 hPa Calm     68 % 0 mm
21:17 -4.1 °C -7.5 °C 34313.7 hPa Calm     69 % 0 mm
21:22 -4.1 °C -7.2 °C 34293.4 hPa Calm     71 % 0 mm
21:32 -4.3 °C -7.5 °C 34303.6 hPa Calm     70 % 0 mm
21:37 -4.3 °C -7.3 °C 34313.7 hPa Calm     72 % 0 mm
21:42 -4.3 °C -6.9 °C 34313.7 hPa Calm   2.6 km/h 75 % 0 mm
21:47 -4.5 °C -6.9 °C 34327.3 hPa Calm   2.6 km/h 77 % 0 mm
21:52 -4.7 °C -6.8 °C 34327.3 hPa Calm   2.6 km/h 79 % 0 mm
21:57 -4.8 °C -7.1 °C 34327.3 hPa Calm     78 % 0 mm
22:02 -4.9 °C -7.1 °C 34327.3 hPa Calm     79 % 0 mm
22:07 -5 °C -7.2 °C 34327.3 hPa Calm     78 % 0 mm
22:12 -5.1 °C -7.1 °C 34327.3 hPa Calm     80 % 0 mm
22:22 -5.1 °C -7 °C 34327.3 hPa Calm   2.6 km/h 81 % 0 mm
22:27 -5.2 °C -6.9 °C 34327.3 hPa Calm   2.6 km/h 82 % 0 mm
22:32 -5.2 °C -6.9 °C 34337.4 hPa Calm   2.6 km/h 83 % 0 mm
22:37 -5.2 °C -6.9 °C 34327.3 hPa Calm   2.6 km/h 83 % 0 mm
22:42 -5.2 °C -7.1 °C 34347.6 hPa WSW 2.6 km/h 10.3 km/h 81 % 0 mm
22:47 -5 °C -7.4 °C 34347.6 hPa Calm   10.3 km/h 77 % 0 mm
22:57 -4.7 °C -7.1 °C 34347.6 hPa Calm   7.7 km/h 77 % 0 mm
23:02 -4.8 °C -7.2 °C 34347.6 hPa Calm     77 % 0 mm
23:07 -4.8 °C -7.2 °C 34347.6 hPa Calm     77 % 0 mm
23:12 -4.9 °C -7.2 °C 34347.6 hPa Calm     78 % 0 mm
23:17 -4.8 °C -7.2 °C 34347.6 hPa Calm     77 % 0 mm
23:22 -4.8 °C -7.2 °C 34347.6 hPa Calm   2.6 km/h 77 % 0 mm
23:27 -4.9 °C -7.2 °C 34347.6 hPa Calm   2.6 km/h 78 % 0 mm
23:32 -4.9 °C -7.2 °C 34347.6 hPa Calm     78 % 0 mm
23:37 -5.1 °C -7.2 °C 34347.6 hPa Calm     79 % 0 mm
23:42 -5.1 °C -7.2 °C 34361.1 hPa Calm     79 % 0 mm
23:47 -5.2 °C -7.3 °C 34347.6 hPa Calm     79 % 0 mm
23:52 -5.2 °C -7.2 °C 34361.1 hPa Calm     80 % 0 mm
23:57 -5.2 °C -7.2 °C 34361.1 hPa Calm     80 % 0 mm
Meteo18
Compliments of Weather Underground - 4 mb

Script developed by  Jim McMurry - jmcmurry@mwt.net Adapted for the template by  Wim van der Kuil - Leuven-Template.eu

You find our weather info also at:

European Weather Network

Weather Underground

Equipment we use:

Weather-station
Davis Vue

Weather-program
Meteobridge

Weather-server
Raspberry PI 2 B+

Provider
1 and 1

Davis Vue

Meteobridge

Raspberry PI 2 B+

1 and 1